ADDS METAR Data INFO
IDs: Format: Raw Decoded Include TAF

Data at: 0057 UTC 21 Oct 2017

KMMK 210053Z AUTO 00000KT 10SM CLR 11/05 A3015 RMK AO2 SLP208 T01060050
KMMK 202353Z AUTO 00000KT 10SM CLR 12/05 A3013 RMK AO2 SLP204 T01220050 10228 20117 53017
KMMK 202253Z AUTO 32006KT 10SM CLR 17/04 A3012 RMK AO2 SLP198 T01670044
KMMK 202153Z AUTO 32009KT 10SM CLR 19/04 A3009 RMK AO2 SLP190 T01890039
KMMK 202053Z AUTO 33008G15KT 10SM CLR 21/03 A3008 RMK AO2 SLP186 T02060033 53008
KMMK 201953Z AUTO 33012G19KT 10SM CLR 22/02 A3007 RMK AO2 SLP181 T02170022
KMMK 201853Z AUTO 32012KT 10SM CLR 22/03 A3006 RMK AO2 SLP177 T02220028
KMMK 201753Z AUTO 29012G18KT 10SM CLR 21/02 A3006 RMK AO2 SLP178 T02110022 10217 20100 58021
KMMK 201653Z AUTO 30009G18KT 10SM CLR 21/01 A3009 RMK AO2 SLP188 T02060011
KMMK 201553Z AUTO 32011G19KT 9SM CLR 20/01 A3011 RMK AO2 SLP195 T02000011
KMMK 201453Z AUTO 30010G16KT 10SM CLR 18/02 A3012 RMK AO2 SLP200 T01830017 50006
KMMK 201353Z AUTO 32007G16KT 10SM CLR 17/03 A3013 RMK AO2 SLP201 T01670033
KMMK 201253Z AUTO 31007KT 10SM CLR 14/06 A3013 RMK AO2 SLP201 T01440056
KMMK 201153Z AUTO 29006KT 10SM CLR 12/07 A3010 RMK AO2 SLP194 T01170072 10117 20050 53013
KMMK 201053Z AUTO 00000KT 7SM CLR 06/05 A3009 RMK AO2 SLP188 T00610050
KMMK 201049Z AUTO 00000KT 4SM BR CLR 06/05 A3009 RMK AO2
KMMK 201027Z AUTO 00000KT 1 3/4SM BR CLR 06/06 A3008 RMK AO2 T00560056
KMMK 201006Z AUTO 00000KT 9SM CLR 06/06 A3008 RMK AO2 T00610056
KMMK 200959Z AUTO 00000KT 2 1/2SM BR CLR 06/06 A3008 RMK AO2 T00560056
KMMK 200953Z AUTO 00000KT 1SM BR VV002 06/06 A3008 RMK AO2 SLP185 T00610056
KMMK 200938Z AUTO 00000KT 1 3/4SM BR CLR 07/07 A3007 RMK AO2 T00720067
KMMK 200917Z AUTO 00000KT 6SM BR CLR 07/07 A3007 RMK AO2 T00720067
KMMK 200907Z AUTO 00000KT 2 1/2SM BR CLR 07/06 A3007 RMK AO2 VIS 1 1/4V5 T00670061
KMMK 200853Z AUTO 00000KT 10SM CLR 08/07 A3007 RMK AO2 SLP181 T00780072 53007
KMMK 200753Z AUTO 00000KT 10SM CLR 08/08 A3005 RMK AO2 SLP175 T00830078
KMMK 200653Z AUTO 00000KT 10SM CLR 09/09 A3004 RMK AO2 SLP172 T00940089
KMMK 200553Z AUTO 00000KT 10SM CLR 11/09 A3004 RMK AO2 SLP173 T01060094 10144 20100 56003
KMMK 200453Z AUTO 21003KT 10SM CLR 12/10 A3005 RMK AO2 SLP174 T01170100 402170044
KMMK 200353Z AUTO 18005KT 10SM CLR 11/11 A3005 RMK AO2 SLP174 T01110106
KMMK 200253Z AUTO 16004KT 10SM CLR 12/11 A3006 RMK AO2 SLP177 T01220111 57002
KMMK 200153Z AUTO 17003KT 10SM CLR 11/09 A3006 RMK AO2 SLP179 T01060094
KMMK 200053Z AUTO 00000KT 10SM CLR 12/10 A3005 RMK AO2 SLP176 T01220100
KMMK 192353Z AUTO 18005KT 10SM CLR 14/10 A3006 RMK AO2 SLP180 T01390100 10211 20139 56001
KMMK 192253Z AUTO 18004KT 10SM CLR 16/09 A3006 RMK AO2 SLP179 T01610094
KMMK 192153Z AUTO 17007KT 10SM CLR 17/09 A3005 RMK AO2 SLP176 T01720094
KMMK 192053Z AUTO 18010KT 10SM CLR 19/08 A3006 RMK AO2 SLP180 T01940078 56023
KMMK 191953Z AUTO 18011KT 10SM CLR 21/07 A3009 RMK AO2 SLP188 T02060067
KMMK 191853Z AUTO 18011G17KT 10SM CLR 21/06 A3010 RMK AO2 SLP193 T02110056
KMMK 191753Z AUTO 19014KT 10SM CLR 21/06 A3013 RMK AO2 SLP202 T02110056 10217 20056 58028
KMMK 191653Z AUTO 17014G20KT 10SM CLR 21/07 A3017 RMK AO2 SLP215 T02060067
KMMK 191553Z AUTO 22011G17KT 10SM CLR 20/07 A3020 RMK AO2 SLP225 T02000067
KMMK 191453Z AUTO 16006KT 10SM CLR 18/10 A3021 RMK AO2 SLP231 T01780100 58010
KMMK 191353Z AUTO 15005KT 10SM CLR 15/10 A3023 RMK AO2 SLP237 T01500100